Time;durP1;ratioP1;P1;durP2;ratioP2;P2;SDS_P1;SDS_P2;PMS_P1;PMS_P2;Temp;Humidity;BMP_temperature;BMP_pressure;BME280_temperature;BME280_humidity;BME280_pressure;Samples;Min_cycle;Max_cycle;Signal;HPM_P1;HPM_P2
2022/11/28 00:02:03;;;;;;;0.00;0.00;;;;;;;5.62;100.00;99603.34;6247083;22;20014;-79
2022/11/28 00:04:29;;;;;;;0.10;0.10;;;;;;;5.56;100.00;99605.19;6219493;22;20039;-79
2022/11/28 00:06:57;;;;;;;0.00;0.00;;;;;;;5.48;100.00;99616.47;6272549;22;20087;-80
2022/11/28 00:09:25;;;;;;;0.03;0.03;;;;;;;5.41;100.00;99613.94;6268597;22;20066;-79
2022/11/28 00:11:51;;;;;;;0.00;0.00;;;;;;;5.40;100.00;99606.06;6271138;22;20015;-78
2022/11/28 00:14:18;;;;;;;0.00;0.00;;;;;;;5.46;100.00;99609.66;6242620;22;20003;-81
2022/11/28 00:16:46;;;;;;;0.00;0.00;;;;;;;5.36;100.00;99605.75;6271720;22;20061;-80
2022/11/28 00:19:12;;;;;;;0.00;0.00;;;;;;;5.28;100.00;99600.75;6269972;22;19999;-79
2022/11/28 00:21:41;;;;;;;0.08;0.08;;;;;;;5.27;100.00;99599.16;6269913;22;20008;-79
2022/11/28 00:24:07;;;;;;;0.00;0.00;;;;;;;5.25;100.00;99593.13;6271141;22;20084;-79
2022/11/28 00:26:35;;;;;;;0.00;0.00;;;;;;;5.11;100.00;99575.59;6265828;22;20080;-78
2022/11/28 00:29:02;;;;;;;0.00;0.00;;;;;;;5.12;100.00;99586.19;6268428;22;20010;-79
2022/11/28 00:31:31;;;;;;;0.00;0.00;;;;;;;5.04;100.00;99592.88;6268136;22;20008;-81
2022/11/28 00:33:57;;;;;;;0.00;0.00;;;;;;;5.00;100.00;99591.72;6270388;22;20003;-78
2022/11/28 00:36:24;;;;;;;0.00;0.00;;;;;;;5.00;100.00;99597.13;6270685;22;19996;-81
2022/11/28 00:38:54;;;;;;;0.00;0.00;;;;;;;4.96;100.00;99585.16;6266229;22;20345;-78
2022/11/28 00:41:25;;;;;;;0.00;0.00;;;;;;;5.05;100.00;99590.97;6221179;22;20004;-79
2022/11/28 00:43:51;;;;;;;0.10;0.10;;;;;;;4.96;100.00;99574.31;6267039;22;19997;-79
2022/11/28 00:46:23;;;;;;;0.00;0.00;;;;;;;5.00;100.00;99580.06;6270799;22;20003;-80
2022/11/28 00:49:08;;;;;;;;;;;;;;;;;;;;;
2022/11/28 00:51:43;;;;;;;0.00;0.00;;;;;;;5.01;100.00;99587.94;6273425;22;20086;-81
2022/11/28 00:54:12;;;;;;;0.00;0.00;;;;;;;5.01;100.00;99582.53;6266501;22;20746;-80
2022/11/28 00:56:39;;;;;;;0.00;0.00;;;;;;;5.03;100.00;99585.00;6271473;22;19999;-81
2022/11/28 00:59:07;;;;;;;0.08;0.08;;;;;;;5.07;100.00;99589.66;6269572;22;20038;-80
2022/11/28 01:01:36;;;;;;;0.00;0.00;;;;;;;5.02;100.00;99577.91;6273122;22;20023;-80
2022/11/28 01:04:12;;;;;;;0.08;0.08;;;;;;;5.02;100.00;99583.34;6271540;22;20019;-82
2022/11/28 01:06:51;;;;;;;0.08;0.08;;;;;;;4.93;100.00;99574.81;6275502;22;20348;-81
2022/11/28 01:09:21;;;;;;;0.00;0.00;;;;;;;4.81;100.00;99571.41;6273823;22;20007;-81
2022/11/28 01:11:50;;;;;;;0.10;0.10;;;;;;;4.76;100.00;99574.03;6273188;22;20035;-82
2022/11/28 01:14:37;;;;;;;;;;;;;;;;;;;;;
2022/11/28 01:17:03;;;;;;;0.00;0.00;;;;;;;4.58;100.00;99577.81;6274166;22;20477;-81
2022/11/28 01:19:33;;;;;;;0.00;0.00;;;;;;;4.45;100.00;99570.84;6221511;22;20058;-81
2022/11/28 01:22:05;;;;;;;0.00;0.00;;;;;;;4.41;100.00;99567.00;6271271;22;20322;-82
2022/11/28 01:24:31;;;;;;;0.10;0.10;;;;;;;4.43;100.00;99575.69;6273909;22;20000;-81
2022/11/28 01:26:59;;;;;;;0.10;0.10;;;;;;;4.39;100.00;99582.66;6269700;22;20011;-82
2022/11/28 01:29:24;;;;;;;0.00;0.00;;;;;;;4.26;100.00;99560.25;6272919;22;20018;-81
2022/11/28 01:31:50;;;;;;;0.10;0.10;;;;;;;4.32;100.00;99564.72;6270154;22;20393;-80
2022/11/28 01:34:17;;;;;;;0.00;0.00;;;;;;;4.23;100.00;99555.34;6272573;22;20373;-80
2022/11/28 01:36:45;;;;;;;0.00;0.00;;;;;;;4.19;100.00;99548.78;6267447;22;20004;-80
2022/11/28 01:39:14;;;;;;;0.00;0.00;;;;;;;4.13;100.00;99547.06;6245857;22;20004;-80
2022/11/28 01:41:42;;;;;;;0.00;0.00;;;;;;;4.16;100.00;99554.69;6248082;22;20014;-77
2022/11/28 01:44:14;;;;;;;0.00;0.00;;;;;;;4.29;100.00;99556.25;6269470;22;20046;-77
2022/11/28 01:46:41;;;;;;;0.00;0.00;;;;;;;4.52;100.00;99563.38;6272338;22;20008;-77
2022/11/28 01:49:33;;;;;;;0.00;0.00;;;;;;;4.72;100.00;99552.84;6264512;22;20480;-76
2022/11/28 01:52:05;;;;;;;0.00;0.00;;;;;;;4.81;100.00;99549.72;6268915;22;20053;-76
2022/11/28 01:54:33;;;;;;;0.00;0.00;;;;;;;4.97;100.00;99550.75;6271141;22;19996;-75
2022/11/28 01:57:07;;;;;;;0.10;0.10;;;;;;;4.99;100.00;99554.84;6269139;22;20050;-75
2022/11/28 01:59:44;;;;;;;0.10;0.10;;;;;;;5.04;100.00;99549.50;6270712;22;20027;-75
2022/11/28 02:02:16;;;;;;;0.00;0.00;;;;;;;5.13;100.00;99547.19;6264395;22;20110;-75
2022/11/28 02:04:43;;;;;;;0.00;0.00;;;;;;;5.13;100.00;99547.19;6270418;22;20007;-75
2022/11/28 02:07:09;;;;;;;0.00;0.00;;;;;;;5.11;100.00;99548.50;6243356;22;20011;-75
2022/11/28 02:09:35;;;;;;;0.00;0.00;;;;;;;5.02;100.00;99546.25;6263898;22;20000;-75
2022/11/28 02:12:15;;;;;;;0.00;0.00;;;;;;;5.03;100.00;99550.56;6242138;22;20011;-74
2022/11/28 02:14:50;;;;;;;0.00;0.00;;;;;;;5.02;100.00;99559.78;6265238;22;20122;-74
2022/11/28 02:17:39;;;;;;;0.00;0.00;;;;;;;4.93;100.00;99558.56;6271002;22;19995;-76
2022/11/28 02:20:19;;;;;;;0.00;0.00;;;;;;;4.83;100.00;99555.72;6269010;22;20331;-75
2022/11/28 02:22:57;;;;;;;0.00;0.00;;;;;;;4.79;100.00;99559.97;6268291;22;20004;-74
2022/11/28 02:25:56;;;;;;;0.10;0.10;;;;;;;4.81;100.00;99569.50;6266484;22;20053;-75
2022/11/28 02:28:31;;;;;;;0.00;0.00;;;;;;;4.85;100.00;99567.13;6263419;22;19992;-76
2022/11/28 02:31:00;;;;;;;0.00;0.00;;;;;;;4.83;100.00;99564.69;6268798;22;20065;-75
2022/11/28 02:33:32;;;;;;;0.10;0.10;;;;;;;4.76;100.00;99557.78;6265082;22;20010;-76
2022/11/28 02:36:26;;;;;;;0.00;0.00;;;;;;;4.74;100.00;99559.91;6272420;22;19996;-75
2022/11/28 02:39:17;;;;;;;0.05;0.05;;;;;;;4.74;100.00;99557.22;6265144;22;20002;-76
2022/11/28 02:42:09;;;;;;;0.00;0.00;;;;;;;4.74;100.00;99559.91;6269290;22;20043;-74
2022/11/28 02:44:43;;;;;;;0.10;0.10;;;;;;;4.65;100.00;99562.22;6267874;22;20003;-75
2022/11/28 02:47:20;;;;;;;0.10;0.10;;;;;;;4.61;100.00;99561.88;6268468;22;20007;-75
2022/11/28 02:49:54;;;;;;;0.00;0.00;;;;;;;4.53;100.00;99562.31;6265616;22;20517;-75
2022/11/28 02:52:34;;;;;;;0.10;0.10;;;;;;;4.47;100.00;99560.63;6270027;22;20841;-74
2022/11/28 02:55:01;;;;;;;0.00;0.00;;;;;;;4.39;100.00;99558.31;6267931;22;20434;-74
2022/11/28 02:57:42;;;;;;;0.05;0.05;;;;;;;4.35;100.00;99557.97;6269680;22;20129;-74
2022/11/28 03:00:35;;;;;;;0.00;0.00;;;;;;;4.31;100.00;99540.59;6265896;22;20015;-75
2022/11/28 03:03:31;;;;;;;0.10;0.10;;;;;;;4.33;100.00;99547.38;6271396;22;20418;-76
2022/11/28 03:06:37;;;;;;;0.00;0.00;;;;;;;4.36;100.00;99544.19;6270616;22;20050;-75
2022/11/28 03:09:08;;;;;;;0.00;0.00;;;;;;;4.47;100.00;99534.34;6268981;22;20042;-76
2022/11/28 03:11:53;;;;;;;0.10;0.10;;;;;;;4.47;100.00;99536.25;6268768;22;20007;-76
2022/11/28 03:14:42;;;;;;;;;;;;;;;4.49;100.00;99536.81;6269152;22;20011;-75
2022/11/28 03:17:25;;;;;;;0.00;0.00;;;;;;;4.56;100.00;99529.34;6257658;22;19911;-75
2022/11/28 03:19:53;;;;;;;0.00;0.00;;;;;;;4.61;100.00;99513.16;6268749;22;20061;-75
2022/11/28 03:22:48;;;;;;;0.00;0.00;;;;;;;4.57;100.00;99512.03;6268885;22;20337;-74
2022/11/28 03:25:40;;;;;;;0.00;0.00;;;;;;;4.51;100.00;99513.00;6266007;22;20000;-74
2022/11/28 03:28:13;;;;;;;0.00;0.00;;;;;;;4.46;100.00;99510.22;6268303;22;20004;-74
2022/11/28 03:30:54;;;;;;;0.10;0.10;;;;;;;4.41;100.00;99507.44;6271461;22;20023;-74
2022/11/28 03:33:22;;;;;;;0.10;0.10;;;;;;;4.32;100.00;99499.75;6266751;22;20138;-74
2022/11/28 03:35:53;;;;;;;0.00;0.00;;;;;;;4.29;100.00;99494.84;6269397;22;20046;-74
2022/11/28 03:38:24;;;;;;;0.00;0.00;;;;;;;4.26;100.00;99500.72;6268607;22;20020;-74
2022/11/28 03:40:54;;;;;;;0.10;0.10;;;;;;;4.40;100.00;99500.41;6272409;22;20050;-74
2022/11/28 03:43:27;;;;;;;0.00;0.00;;;;;;;4.43;100.00;99495.28;6271948;22;20004;-75
2022/11/28 03:45:56;;;;;;;0.00;0.00;;;;;;;4.44;100.00;99506.94;6271909;22;20000;-74
2022/11/28 03:48:29;;;;;;;0.00;0.00;;;;;;;4.54;100.00;99496.25;6270672;22;19999;-75
2022/11/28 03:51:08;;;;;;;0.00;0.00;;;;;;;4.60;100.00;99499.84;6268983;22;20023;-75
2022/11/28 03:54:10;;;;;;;0.10;0.10;;;;;;;4.50;100.00;99495.13;6270065;22;20042;-75
2022/11/28 03:56:44;;;;;;;0.03;0.03;;;;;;;4.39;100.00;99485.22;6270730;22;20004;-74
2022/11/28 03:59:16;;;;;;;0.00;0.00;;;;;;;4.36;100.00;99490.03;6270569;22;20007;-75
2022/11/28 04:01:46;;;;;;;0.00;0.00;;;;;;;4.33;100.00;99484.31;6272718;22;20063;-75
2022/11/28 04:04:17;;;;;;;0.00;0.00;;;;;;;4.34;100.00;99486.78;6272943;22;20430;-75
2022/11/28 04:07:01;;;;;;;0.03;0.03;;;;;;;4.32;100.00;99493.50;6273507;22;20007;-76
2022/11/28 04:09:56;;;;;;;0.00;0.00;;;;;;;4.37;100.00;99494.41;6273234;22;20003;-75
2022/11/28 04:12:54;;;;;;;;;;;;;;;4.60;100.00;99494.44;6271449;22;20041;-75
2022/11/28 04:15:25;;;;;;;0.03;0.03;;;;;;;4.78;100.00;99496.06;6238589;22;19907;-75
2022/11/28 04:18:04;;;;;;;0.00;0.00;;;;;;;4.83;100.00;99498.81;6270302;22;20004;-74
2022/11/28 04:20:40;;;;;;;0.00;0.00;;;;;;;4.81;100.00;99492.84;6274502;22;20003;-74
2022/11/28 04:23:10;;;;;;;0.10;0.10;;;;;;;4.84;100.00;99497.75;6270674;22;20011;-76
2022/11/28 04:25:40;;;;;;;0.00;0.00;;;;;;;4.93;100.00;99492.72;6274944;22;20000;-75
2022/11/28 04:28:12;;;;;;;0.00;0.00;;;;;;;4.97;100.00;99510.94;6273745;22;20076;-75
2022/11/28 04:30:39;;;;;;;0.08;0.08;;;;;;;4.92;100.00;99501.91;6270845;22;20019;-75
2022/11/28 04:33:08;;;;;;;0.00;0.00;;;;;;;4.86;100.00;99498.31;6272830;22;20003;-74
2022/11/28 04:35:41;;;;;;;0.10;0.10;;;;;;;4.85;100.00;99496.69;6272727;22;20488;-74
2022/11/28 04:38:09;;;;;;;0.10;0.10;;;;;;;4.88;100.00;99496.19;6268535;22;20007;-74
2022/11/28 04:40:42;;;;;;;0.10;0.10;;;;;;;4.95;100.00;99501.41;6273397;22;20027;-74
2022/11/28 04:43:15;;;;;;;0.00;0.00;;;;;;;5.02;100.00;99499.34;6270412;22;20112;-75
2022/11/28 04:45:53;;;;;;;0.00;0.00;;;;;;;5.13;100.00;99511.13;6271645;22;20011;-75
2022/11/28 04:48:19;;;;;;;0.00;0.00;;;;;;;5.25;100.00;99517.22;6267858;22;20078;-75
2022/11/28 04:51:15;;;;;;;0.00;0.00;;;;;;;5.38;100.00;99513.31;6270392;22;20126;-75
2022/11/28 04:53:49;;;;;;;0.00;0.00;;;;;;;5.49;100.00;99506.09;6270333;22;20502;-74
2022/11/28 04:56:26;;;;;;;0.07;0.07;;;;;;;5.59;100.00;99517.06;6273620;22;20000;-73
2022/11/28 04:58:51;;;;;;;0.00;0.00;;;;;;;5.66;100.00;99523.09;6270992;22;19999;-74
2022/11/28 05:01:23;;;;;;;0.00;0.00;;;;;;;5.66;100.00;99512.25;6222522;22;20654;-74
2022/11/28 05:03:48;;;;;;;0.10;0.10;;;;;;;5.69;100.00;99505.50;6272127;22;20031;-74
2022/11/28 05:06:34;;;;;;;0.00;0.00;;;;;;;5.69;100.00;99490.03;6272257;22;20340;-75
2022/11/28 05:09:00;;;;;;;0.00;0.00;;;;;;;5.70;100.00;99497.09;6271917;22;20008;-73
2022/11/28 05:11:26;;;;;;;0.00;0.00;;;;;;;5.71;100.00;99489.78;6248001;22;20060;-74
2022/11/28 05:13:53;;;;;;;0.00;0.00;;;;;;;5.72;100.00;99484.13;6245680;22;20034;-74
2022/11/28 05:16:18;;;;;;;0.00;0.00;;;;;;;5.75;100.00;99482.78;6247534;22;20022;-74
2022/11/28 05:18:44;;;;;;;0.00;0.00;;;;;;;5.74;100.00;99476.53;6274080;22;20082;-75
2022/11/28 05:21:10;;;;;;;0.00;0.00;;;;;;;5.76;100.00;99479.81;6273253;22;20008;-75
2022/11/28 05:23:40;;;;;;;0.00;0.00;;;;;;;5.75;100.00;99478.19;6279084;22;20061;-76
2022/11/28 05:26:11;;;;;;;0.00;0.00;;;;;;;5.76;100.00;99479.81;6279387;22;19995;-74
2022/11/28 05:28:37;;;;;;;0.00;0.00;;;;;;;5.76;100.00;99477.09;6279735;22;20052;-74
2022/11/28 05:31:03;;;;;;;0.00;0.00;;;;;;;5.74;100.00;99460.25;6248828;22;20023;-75
2022/11/28 05:33:29;;;;;;;0.00;0.00;;;;;;;5.77;100.00;99470.59;6246738;22;20008;-73
2022/11/28 05:35:56;;;;;;;0.00;0.00;;;;;;;5.81;100.00;99475.50;6271957;22;20006;-74
2022/11/28 05:38:21;;;;;;;0.08;0.08;;;;;;;5.84;100.00;99466.84;6244981;22;20427;-74
2022/11/28 05:40:47;;;;;;;0.00;0.00;;;;;;;5.83;100.00;99473.38;6274071;22;20030;-74
2022/11/28 05:43:12;;;;;;;0.00;0.00;;;;;;;5.85;100.00;99476.63;6269392;22;20640;-74
2022/11/28 05:45:39;;;;;;;0.05;0.05;;;;;;;5.85;100.00;99471.19;6270537;22;20003;-74
2022/11/28 05:48:05;;;;;;;0.00;0.00;;;;;;;5.84;100.00;99469.56;6241107;22;20057;-74
2022/11/28 05:50:30;;;;;;;0.00;0.00;;;;;;;5.83;100.00;99467.94;6270999;22;20004;-74
2022/11/28 05:52:56;;;;;;;0.00;0.00;;;;;;;5.82;100.00;99471.72;6222026;22;20391;-73
2022/11/28 05:55:21;;;;;;;0.00;0.00;;;;;;;5.80;100.00;99468.44;6218509;22;20103;-75
2022/11/28 05:57:47;;;;;;;0.00;0.00;;;;;;;5.72;100.00;99467.84;6245086;22;20008;-74
2022/11/28 06:00:13;;;;;;;0.00;0.00;;;;;;;5.67;100.00;99475.13;6241623;22;20007;-75
2022/11/28 06:02:39;;;;;;;0.03;0.03;;;;;;;5.60;100.00;99475.31;6244683;22;20428;-74
2022/11/28 06:05:04;;;;;;;0.00;0.00;;;;;;;5.47;100.00;99471.09;6242450;22;20042;-74
2022/11/28 06:07:33;;;;;;;0.00;0.00;;;;;;;5.35;100.00;99475.88;6244604;22;20000;-75
2022/11/28 06:09:58;;;;;;;0.00;0.00;;;;;;;5.25;100.00;99473.88;6243417;22;20007;-74
2022/11/28 06:12:24;;;;;;;0.00;0.00;;;;;;;5.21;100.00;99489.81;6269963;22;20103;-75
2022/11/28 06:14:49;;;;;;;0.08;0.08;;;;;;;5.12;100.00;99483.19;6271526;22;20046;-74
2022/11/28 06:17:14;;;;;;;0.00;0.00;;;;;;;5.06;100.00;99482.31;6242688;22;20012;-74
2022/11/28 06:19:40;;;;;;;0.03;0.03;;;;;;;4.96;100.00;99478.66;6269692;22;20022;-74
2022/11/28 06:22:05;;;;;;;0.00;0.00;;;;;;;4.91;100.00;99479.44;6269693;22;20711;-74
2022/11/28 06:24:31;;;;;;;0.00;0.00;;;;;;;4.85;100.00;99483.16;6270134;22;20366;-74
2022/11/28 06:26:56;;;;;;;0.00;0.00;;;;;;;4.80;100.00;99489.31;6269017;22;20007;-75
2022/11/28 06:29:22;;;;;;;0.05;0.05;;;;;;;4.74;100.00;99490.31;6265838;22;20461;-75
2022/11/28 06:31:47;;;;;;;0.00;0.00;;;;;;;4.68;100.00;99486.72;6271091;22;20008;-74
2022/11/28 06:34:13;;;;;;;0.00;0.00;;;;;;;4.66;100.00;99488.84;6268761;22;20334;-74
2022/11/28 06:36:39;;;;;;;0.00;0.00;;;;;;;4.66;100.00;99480.72;6241051;22;20014;-74
2022/11/28 06:39:04;;;;;;;0.00;0.00;;;;;;;4.69;100.00;99476.72;6268559;22;20003;-75
2022/11/28 06:41:33;;;;;;;0.00;0.00;;;;;;;4.77;100.00;99470.84;6240341;22;20114;-74
2022/11/28 06:44:03;;;;;;;0.00;0.00;;;;;;;4.93;100.00;99477.28;6270060;22;20092;-74
2022/11/28 06:46:28;;;;;;;0.05;0.05;;;;;;;5.03;100.00;99471.19;6239186;22;20065;-75
2022/11/28 06:48:54;;;;;;;0.00;0.00;;;;;;;5.16;100.00;99470.78;6246604;22;20011;-77
2022/11/28 06:51:20;;;;;;;0.00;0.00;;;;;;;5.30;100.00;99476.66;6279086;22;20012;-76
2022/11/28 06:53:46;;;;;;;0.05;0.05;;;;;;;5.42;100.00;99480.00;6284729;22;19999;-77
2022/11/28 06:56:15;;;;;;;0.00;0.00;;;;;;;5.54;100.00;99479.88;6276111;22;20007;-76
2022/11/28 06:58:42;;;;;;;0.00;0.00;;;;;;;5.66;100.00;99477.00;6271296;22;20111;-76
2022/11/28 07:01:19;;;;;;;0.00;0.00;;;;;;;5.70;100.00;99480.03;6270457;22;20035;-76
2022/11/28 07:03:44;;;;;;;0.08;0.08;;;;;;;5.79;100.00;99477.66;6265349;22;20000;-76
2022/11/28 07:06:11;;;;;;;0.00;0.00;;;;;;;5.89;100.00;99483.19;6271970;22;20031;-77
2022/11/28 07:08:37;;;;;;;0.00;0.00;;;;;;;5.95;100.00;99493.00;6240678;22;20007;-77
2022/11/28 07:11:13;;;;;;;0.00;0.00;;;;;;;5.98;100.00;99487.09;6270117;22;20008;-76
2022/11/28 07:13:40;;;;;;;0.00;0.00;;;;;;;6.00;100.00;99487.66;6264289;22;20430;-76
2022/11/28 07:16:07;;;;;;;0.00;0.00;;;;;;;5.97;100.00;99485.44;6270291;22;20008;-77
2022/11/28 07:18:34;;;;;;;0.00;0.00;;;;;;;5.93;100.00;99489.75;6272519;22;20091;-76
2022/11/28 07:21:05;;;;;;;0.00;0.00;;;;;;;5.75;100.00;99472.75;6268790;22;20050;-75
2022/11/28 07:23:34;;;;;;;0.00;0.00;;;;;;;5.62;100.00;99467.72;6270196;22;20017;-75
2022/11/28 07:26:01;;;;;;;0.00;0.00;;;;;;;5.69;100.00;99490.03;6270222;22;19996;-74
2022/11/28 07:28:28;;;;;;;0.00;0.00;;;;;;;5.63;100.00;99474.78;6271578;22;20007;-74
2022/11/28 07:30:59;;;;;;;0.00;0.00;;;;;;;5.69;100.00;99491.94;6238781;22;20014;-75
2022/11/28 07:33:24;;;;;;;0.00;0.00;;;;;;;5.67;100.00;99486.78;6268742;22;20389;-75
2022/11/28 07:35:50;;;;;;;0.00;0.00;;;;;;;5.65;100.00;99498.94;6242902;22;20027;-75
2022/11/28 07:38:15;;;;;;;0.00;0.00;;;;;;;5.59;100.00;99492.66;6242070;22;20031;-74
2022/11/28 07:40:40;;;;;;;0.00;0.00;;;;;;;5.58;100.00;99496.47;6219703;22;20026;-75
2022/11/28 07:43:06;;;;;;;0.00;0.00;;;;;;;5.52;100.00;99495.59;6217317;22;20338;-75
2022/11/28 07:45:31;;;;;;;0.00;0.00;;;;;;;5.43;100.00;99488.97;6245982;22;20007;-74
2022/11/28 07:47:57;;;;;;;0.00;0.00;;;;;;;5.40;100.00;99493.03;6242763;22;20057;-74
2022/11/28 07:50:22;;;;;;;0.00;0.00;;;;;;;5.38;100.00;99495.16;6245855;22;20099;-75
2022/11/28 07:52:50;;;;;;;0.00;0.00;;;;;;;5.31;100.00;99494.53;6244615;22;20004;-73
2022/11/28 07:55:15;;;;;;;0.00;0.00;;;;;;;5.29;100.00;99495.88;6266401;22;20327;-75
2022/11/28 07:57:41;;;;;;;0.00;0.00;;;;;;;5.31;100.00;99504.56;6220169;22;20008;-74
2022/11/28 08:00:07;;;;;;;0.00;0.00;;;;;;;5.30;100.00;99503.75;6266464;22;20018;-76
2022/11/28 08:02:32;;;;;;;0.00;0.00;;;;;;;5.33;100.00;99497.81;6271497;22;20010;-74
2022/11/28 08:04:58;;;;;;;0.00;0.00;;;;;;;5.36;100.00;99508.16;6216372;22;20019;-75
2022/11/28 08:07:24;;;;;;;0.00;0.00;;;;;;;5.30;100.00;99481.22;6247392;22;20011;-77
2022/11/28 08:09:49;;;;;;;0.00;0.00;;;;;;;5.39;100.00;99496.78;6270573;22;20004;-74
2022/11/28 08:12:15;;;;;;;0.00;0.00;;;;;;;5.44;100.00;99492.50;6267113;22;20065;-74
2022/11/28 08:14:52;;;;;;;;;;;;;;;;;;;;;
2022/11/28 08:17:21;;;;;;;0.00;0.00;;;;;;;5.61;100.00;99514.94;6266089;22;20083;-80
2022/11/28 08:19:49;;;;;;;0.00;0.00;;;;;;;5.64;100.00;99517.13;6272652;22;20434;-80
2022/11/28 08:22:19;;;;;;;0.00;0.00;;;;;;;5.68;100.00;99515.53;6246574;22;20526;-80
2022/11/28 08:24:44;;;;;;;0.00;0.00;;;;;;;5.71;100.00;99519.63;6244862;22;20527;-80
2022/11/28 08:27:12;;;;;;;0.00;0.00;;;;;;;5.74;100.00;99516.41;6268046;22;19999;-81
2022/11/28 08:29:38;;;;;;;0.00;0.00;;;;;;;5.80;100.00;99528.97;6221061;22;20024;-80
2022/11/28 08:32:03;;;;;;;0.00;0.00;;;;;;;5.81;100.00;99519.75;6273007;22;20031;-78
2022/11/28 08:34:28;;;;;;;0.00;0.00;;;;;;;5.84;100.00;99526.53;6244276;22;20054;-79
2022/11/28 08:36:54;;;;;;;0.00;0.00;;;;;;;5.89;100.00;99521.16;6272797;22;20000;-78
2022/11/28 08:39:19;;;;;;;0.00;0.00;;;;;;;5.95;100.00;99525.56;6270909;22;20028;-79
2022/11/28 08:41:48;;;;;;;0.00;0.00;;;;;;;6.09;100.00;99529.53;6279304;22;20004;-78
2022/11/28 08:44:14;;;;;;;0.00;0.00;;;;;;;6.23;100.00;99532.63;6279121;22;20007;-78
2022/11/28 08:46:39;;;;;;;0.00;0.00;;;;;;;6.35;100.00;99535.19;6278528;22;19999;-77
2022/11/28 08:49:06;;;;;;;0.00;0.00;;;;;;;6.46;100.00;99534.16;6283824;22;20095;-78
2022/11/28 08:51:32;;;;;;;0.00;0.00;;;;;;;6.64;100.00;99548.41;6246450;22;20012;-79
2022/11/28 08:54:02;;;;;;;0.00;0.00;;;;;;;6.73;100.00;99541.41;6266363;22;20078;-78
2022/11/28 08:56:28;;;;;;;0.00;0.00;;;;;;;6.81;100.00;99540.91;6247106;22;20359;-78
2022/11/28 08:58:54;;;;;;;0.00;0.00;;;;;;;6.87;100.00;99540.94;6227947;22;20035;-77
2022/11/28 09:01:22;;;;;;;0.00;0.00;;;;;;;6.84;100.00;99542.28;6272495;22;20010;-80
2022/11/28 09:03:48;;;;;;;0.00;0.00;;;;;;;6.95;100.00;99545.88;6267816;22;20322;-80
2022/11/28 09:06:20;;;;;;;0.00;0.00;;;;;;;7.06;100.00;99547.56;6242517;22;20382;-78
2022/11/28 09:08:46;;;;;;;0.00;0.00;;;;;;;7.23;100.00;99546.53;6264898;22;20061;-76
2022/11/28 09:11:17;;;;;;;0.00;0.00;;;;;;;7.31;100.00;99537.88;6246126;22;20011;-78
2022/11/28 09:13:43;;;;;;;0.00;0.00;;;;;;;7.49;100.00;99548.31;6267899;22;20376;-76
2022/11/28 09:16:09;;;;;;;0.00;0.00;;;;;;;7.63;100.00;99547.78;6245553;22;20414;-77
2022/11/28 09:18:44;;;;;;;;;;;;;;;;;;;;;
2022/11/28 09:21:12;;;;;;;0.00;0.00;;;;;;;8.93;100.00;99539.38;6248543;22;20091;-78
2022/11/28 09:23:39;;;;;;;0.00;0.00;;;;;;;9.30;100.00;99551.84;6242040;22;20099;-78
2022/11/28 09:26:36;;;;;;;0.00;0.00;;;;;;;10.93;100.00;99550.94;6273138;22;20007;-78
2022/11/28 09:29:10;;;;;;;0.00;0.00;;;;;;;13.43;100.00;99548.50;6223633;22;20011;-78
2022/11/28 09:31:35;;;;;;;0.00;0.00;;;;;;;14.07;100.00;99550.44;6244738;22;20642;-78
2022/11/28 09:34:02;;;;;;;0.00;0.00;;;;;;;14.39;100.00;99560.38;6219768;22;20014;-78
2022/11/28 09:36:29;;;;;;;0.00;0.00;;;;;;;14.16;100.00;99564.25;6216870;22;20011;-77
2022/11/28 09:38:54;;;;;;;0.00;0.00;;;;;;;13.39;100.00;99555.72;6220077;22;20012;-78
2022/11/28 09:42:01;;;;;;;0.00;0.00;;;;;;;12.29;100.00;99560.69;6215284;22;20059;-79
2022/11/28 09:44:40;;;;;;;0.00;0.00;;;;;;;11.31;100.00;99553.00;6168962;22;20050;-77
2022/11/28 09:47:19;;;;;;;0.00;0.00;;;;;;;10.59;100.00;99557.31;6244752;22;20492;-78
2022/11/28 09:49:50;;;;;;;0.00;0.00;;;;;;;10.07;100.00;99564.25;6268475;22;20004;-78
2022/11/28 09:52:38;;;;;;;0.00;0.00;;;;;;;9.74;100.00;99572.09;6271995;22;20375;-77
2022/11/28 09:55:25;;;;;;;0.00;0.00;;;;;;;9.38;100.00;99564.06;6243876;22;20308;-78
2022/11/28 09:57:52;;;;;;;0.00;0.00;;;;;;;9.17;100.00;99563.31;6245052;22;20018;-79
2022/11/28 10:00:31;;;;;;;0.00;0.00;;;;;;;9.08;100.00;99568.53;6244847;22;20027;-79
2022/11/28 10:03:05;;;;;;;0.00;0.00;;;;;;;9.00;100.00;99577.28;6244655;22;19999;-77
2022/11/28 10:05:40;;;;;;;0.10;0.10;;;;;;;8.95;100.00;99577.28;6241796;22;20090;-76
2022/11/28 10:08:36;;;;;;;0.00;0.00;;;;;;;8.87;100.00;99565.84;6241996;22;19999;-78
2022/11/28 10:11:33;;;;;;;0.00;0.00;;;;;;;8.81;100.00;99566.94;6175243;22;20061;-80
2022/11/28 10:14:40;;;;;;;0.00;0.00;;;;;;;8.91;100.00;99566.13;6251480;22;19991;-79
2022/11/28 10:17:40;;;;;;;0.00;0.00;;;;;;;9.33;100.00;99575.00;6286039;22;20003;-77
2022/11/28 10:20:27;;;;;;;0.00;0.00;;;;;;;10.92;100.00;99567.66;6274438;22;20030;-78
2022/11/28 10:22:57;;;;;;;0.00;0.00;;;;;;;12.75;100.00;99568.16;6268718;22;20014;-77
2022/11/28 10:25:35;;;;;;;0.00;0.00;;;;;;;15.75;100.00;99587.59;6273316;22;20026;-77
2022/11/28 10:28:05;;;;;;;0.00;0.00;;;;;;;17.90;95.91;99586.22;6266351;22;20069;-77
2022/11/28 10:30:38;;;;;;;0.00;0.00;;;;;;;19.55;86.26;99580.16;6268192;22;20003;-80
2022/11/28 10:33:12;;;;;;;0.00;0.00;;;;;;;21.05;81.07;99582.16;6272048;22;20003;-77
2022/11/28 10:35:43;;;;;;;0.00;0.00;;;;;;;21.59;77.57;99583.53;6272249;22;20437;-77
2022/11/28 10:38:14;;;;;;;0.00;0.00;;;;;;;23.73;72.26;99590.09;6263327;22;19999;-76
2022/11/28 10:40:42;;;;;;;0.00;0.00;;;;;;;25.34;65.85;99584.88;6268145;22;20015;-76
2022/11/28 10:43:56;;;;;;;0.00;0.00;;;;;;;25.20;66.53;99585.53;6266207;22;20011;-77
2022/11/28 10:46:40;;;;;;;0.00;0.00;;;;;;;23.49;72.67;99583.75;6231669;22;20011;-77
2022/11/28 10:49:21;;;;;;;0.00;0.00;;;;;;;25.38;65.95;99591.31;6266940;22;20000;-79
2022/11/28 10:51:58;;;;;;;0.00;0.00;;;;;;;27.96;57.75;99584.09;6262602;22;20007;-78
2022/11/28 10:54:23;;;;;;;0.00;0.00;;;;;;;30.11;49.15;99586.78;6267722;22;20011;-78
2022/11/28 10:56:55;;;;;;;0.00;0.00;;;;;;;31.27;46.12;99579.59;6270309;22;20046;-78
2022/11/28 11:00:02;;;;;;;0.00;0.00;;;;;;;32.63;42.89;99578.25;6269597;22;20004;-77
2022/11/28 11:02:30;;;;;;;0.00;0.00;;;;;;;33.13;42.25;99579.94;6267124;22;20088;-76
2022/11/28 11:04:56;;;;;;;0.00;0.00;;;;;;;33.62;41.78;99579.16;6266081;22;20402;-78
2022/11/28 11:07:36;;;;;;;0.00;0.00;;;;;;;33.60;42.09;99572.34;6242910;22;20072;-78
2022/11/28 11:10:13;;;;;;;0.00;0.00;;;;;;;34.28;41.04;99569.72;6267699;22;20434;-78
2022/11/28 11:12:39;;;;;;;0.00;0.00;;;;;;;34.63;40.13;99572.72;6265842;22;20004;-79
2022/11/28 11:15:31;;;;;;;0.00;0.00;;;;;;;35.52;38.78;99574.75;6268329;22;20006;-78
2022/11/28 11:18:05;;;;;;;0.00;0.00;;;;;;;34.85;40.68;99573.66;6262373;22;20000;-79
2022/11/28 11:20:48;;;;;;;0.00;0.00;;;;;;;35.09;40.88;99564.78;6260105;22;20039;-78
2022/11/28 11:23:27;;;;;;;0.00;0.00;;;;;;;34.46;43.08;99569.97;6234714;22;20031;-78
2022/11/28 11:25:57;;;;;;;0.00;0.00;;;;;;;34.31;44.02;99568.81;6236165;22;20868;-77
2022/11/28 11:28:25;;;;;;;0.00;0.00;;;;;;;34.26;45.16;99573.78;6265405;22;20014;-80
2022/11/28 11:30:59;;;;;;;0.00;0.00;;;;;;;35.28;43.33;99585.66;6269812;22;20037;-78
2022/11/28 11:33:37;;;;;;;0.00;0.00;;;;;;;35.83;41.95;99579.78;6271848;22;20010;-78
2022/11/28 11:36:20;;;;;;;0.00;0.00;;;;;;;36.96;40.28;99578.00;6263812;22;20019;-78
2022/11/28 11:38:49;;;;;;;0.00;0.00;;;;;;;37.78;39.36;99580.75;6265830;22;20629;-79
2022/11/28 11:41:33;;;;;;;0.00;0.00;;;;;;;38.56;38.39;99584.16;6270979;22;20661;-78
2022/11/28 11:44:13;;;;;;;0.00;0.00;;;;;;;39.27;37.76;99584.88;6264453;22;20004;-77
2022/11/28 11:46:52;;;;;;;0.00;0.00;;;;;;;40.19;36.60;99596.91;6268074;22;20030;-79
2022/11/28 11:49:31;;;;;;;0.00;0.00;;;;;;;40.37;36.70;99593.84;6259667;22;20046;-78
2022/11/28 11:52:17;;;;;;;0.00;0.00;;;;;;;39.86;37.71;99586.38;6265401;22;20004;-77
2022/11/28 11:55:08;;;;;;;0.00;0.00;;;;;;;40.42;37.41;99593.19;6267302;22;20004;-79
2022/11/28 11:58:14;;;;;;;0.00;0.00;;;;;;;41.03;36.95;99583.25;6270499;22;19992;-78
2022/11/28 12:00:42;;;;;;;0.00;0.00;;;;;;;41.25;36.92;99597.13;6264253;22;20008;-84
2022/11/28 12:03:25;;;;;;;0.00;0.00;;;;;;;38.99;40.87;99589.88;6263787;22;20012;-81
2022/11/28 12:05:57;;;;;;;0.00;0.00;;;;;;;33.33;53.84;99570.59;6265343;22;20007;-80